sensor_id;sensor_type;location;lat;lon;timestamp;temperature;humidity
9730;DHT22;4904;49.152;11.004;2024-01-30T00:02:12;1.60;99.90
9730;DHT22;4904;49.152;11.004;2024-01-30T00:04:38;1.50;99.90
9730;DHT22;4904;49.152;11.004;2024-01-30T00:07:05;1.40;99.90
9730;DHT22;4904;49.152;11.004;2024-01-30T00:09:34;1.40;99.90
9730;DHT22;4904;49.152;11.004;2024-01-30T00:12:01;1.50;99.90
9730;DHT22;4904;49.152;11.004;2024-01-30T00:14:28;1.50;99.90
9730;DHT22;4904;49.152;11.004;2024-01-30T00:16:54;1.60;99.90
9730;DHT22;4904;49.152;11.004;2024-01-30T00:19:21;1.70;99.90
9730;DHT22;4904;49.152;11.004;2024-01-30T00:21:48;1.70;99.90
9730;DHT22;4904;49.152;11.004;2024-01-30T00:24:15;1.90;99.90
9730;DHT22;4904;49.152;11.004;2024-01-30T00:26:43;1.60;99.90
9730;DHT22;4904;49.152;11.004;2024-01-30T00:29:10;1.60;99.90
9730;DHT22;4904;49.152;11.004;2024-01-30T00:31:37;1.50;99.90
9730;DHT22;4904;49.152;11.004;2024-01-30T00:34:04;1.40;99.90
9730;DHT22;4904;49.152;11.004;2024-01-30T00:36:31;1.30;99.90
9730;DHT22;4904;49.152;11.004;2024-01-30T00:38:59;1.30;99.90
9730;DHT22;4904;49.152;11.004;2024-01-30T00:41:26;1.10;99.90
9730;DHT22;4904;49.152;11.004;2024-01-30T00:43:54;1.10;99.90
9730;DHT22;4904;49.152;11.004;2024-01-30T00:46:21;1.10;99.90
9730;DHT22;4904;49.152;11.004;2024-01-30T00:48:48;1.00;99.90
9730;DHT22;4904;49.152;11.004;2024-01-30T00:51:16;1.00;99.90
9730;DHT22;4904;49.152;11.004;2024-01-30T00:53:43;1.10;99.90
9730;DHT22;4904;49.152;11.004;2024-01-30T00:56:10;1.00;99.90
9730;DHT22;4904;49.152;11.004;2024-01-30T00:58:36;1.10;99.90
9730;DHT22;4904;49.152;11.004;2024-01-30T01:01:05;1.10;99.90
9730;DHT22;4904;49.152;11.004;2024-01-30T01:03:33;1.10;99.90
9730;DHT22;4904;49.152;11.004;2024-01-30T01:05:59;1.10;99.90
9730;DHT22;4904;49.152;11.004;2024-01-30T01:08:26;1.10;99.90
9730;DHT22;4904;49.152;11.004;2024-01-30T01:10:53;1.00;99.90
9730;DHT22;4904;49.152;11.004;2024-01-30T01:13:20;1.00;99.90
9730;DHT22;4904;49.152;11.004;2024-01-30T01:15:47;0.90;99.90
9730;DHT22;4904;49.152;11.004;2024-01-30T01:18:15;0.90;99.90
9730;DHT22;4904;49.152;11.004;2024-01-30T01:20:43;0.80;99.90
9730;DHT22;4904;49.152;11.004;2024-01-30T01:23:10;0.90;99.90
9730;DHT22;4904;49.152;11.004;2024-01-30T01:25:36;0.90;99.90
9730;DHT22;4904;49.152;11.004;2024-01-30T01:28:04;1.00;99.90
9730;DHT22;4904;49.152;11.004;2024-01-30T01:30:31;1.10;99.90
9730;DHT22;4904;49.152;11.004;2024-01-30T01:32:58;1.10;99.90
9730;DHT22;4904;49.152;11.004;2024-01-30T01:35:29;1.10;99.90
9730;DHT22;4904;49.152;11.004;2024-01-30T01:37:55;1.10;99.90
9730;DHT22;4904;49.152;11.004;2024-01-30T01:40:25;1.10;99.90
9730;DHT22;4904;49.152;11.004;2024-01-30T01:42:52;1.10;99.90
9730;DHT22;4904;49.152;11.004;2024-01-30T01:45:19;1.20;99.90
9730;DHT22;4904;49.152;11.004;2024-01-30T01:47:48;1.20;99.90
9730;DHT22;4904;49.152;11.004;2024-01-30T01:50:18;1.10;99.90
9730;DHT22;4904;49.152;11.004;2024-01-30T01:52:47;1.20;99.90
9730;DHT22;4904;49.152;11.004;2024-01-30T01:55:15;1.20;99.90
9730;DHT22;4904;49.152;11.004;2024-01-30T01:57:43;1.20;99.90
9730;DHT22;4904;49.152;11.004;2024-01-30T02:00:12;1.20;99.90
9730;DHT22;4904;49.152;11.004;2024-01-30T02:02:39;1.20;99.90
9730;DHT22;4904;49.152;11.004;2024-01-30T02:05:08;1.20;99.90
9730;DHT22;4904;49.152;11.004;2024-01-30T02:07:35;1.00;99.90
9730;DHT22;4904;49.152;11.004;2024-01-30T02:10:04;0.90;99.90
9730;DHT22;4904;49.152;11.004;2024-01-30T02:12:31;0.90;99.90
9730;DHT22;4904;49.152;11.004;2024-01-30T02:14:57;0.80;99.90
9730;DHT22;4904;49.152;11.004;2024-01-30T02:17:24;0.80;99.90
9730;DHT22;4904;49.152;11.004;2024-01-30T02:19:52;0.90;99.90
9730;DHT22;4904;49.152;11.004;2024-01-30T02:22:21;0.80;99.90
9730;DHT22;4904;49.152;11.004;2024-01-30T02:24:49;0.80;99.90
9730;DHT22;4904;49.152;11.004;2024-01-30T02:27:15;0.80;99.90
9730;DHT22;4904;49.152;11.004;2024-01-30T02:29:42;1.10;99.90
9730;DHT22;4904;49.152;11.004;2024-01-30T02:32:09;1.20;99.90
9730;DHT22;4904;49.152;11.004;2024-01-30T02:34:36;1.20;99.90
9730;DHT22;4904;49.152;11.004;2024-01-30T02:37:03;1.20;99.90
9730;DHT22;4904;49.152;11.004;2024-01-30T02:39:31;1.30;99.90
9730;DHT22;4904;49.152;11.004;2024-01-30T02:41:58;1.30;99.90
9730;DHT22;4904;49.152;11.004;2024-01-30T02:44:25;1.30;99.90
9730;DHT22;4904;49.152;11.004;2024-01-30T02:46:52;1.40;99.90
9730;DHT22;4904;49.152;11.004;2024-01-30T02:49:20;1.50;99.90
9730;DHT22;4904;49.152;11.004;2024-01-30T02:51:47;1.40;99.90
9730;DHT22;4904;49.152;11.004;2024-01-30T02:54:15;1.50;99.90
9730;DHT22;4904;49.152;11.004;2024-01-30T02:56:43;1.40;99.90
9730;DHT22;4904;49.152;11.004;2024-01-30T02:59:10;1.50;99.90
9730;DHT22;4904;49.152;11.004;2024-01-30T03:01:43;1.50;99.90
9730;DHT22;4904;49.152;11.004;2024-01-30T03:04:10;1.60;99.90
9730;DHT22;4904;49.152;11.004;2024-01-30T03:06:37;1.60;99.90
9730;DHT22;4904;49.152;11.004;2024-01-30T03:09:04;1.70;99.90
9730;DHT22;4904;49.152;11.004;2024-01-30T03:11:31;1.80;99.90
9730;DHT22;4904;49.152;11.004;2024-01-30T03:13:59;1.90;99.90
9730;DHT22;4904;49.152;11.004;2024-01-30T03:16:26;2.00;99.90
9730;DHT22;4904;49.152;11.004;2024-01-30T03:18:53;2.10;99.90
9730;DHT22;4904;49.152;11.004;2024-01-30T03:21:20;2.10;99.90
9730;DHT22;4904;49.152;11.004;2024-01-30T03:23:47;2.20;99.90
9730;DHT22;4904;49.152;11.004;2024-01-30T03:26:14;2.20;99.90
9730;DHT22;4904;49.152;11.004;2024-01-30T03:28:41;2.30;99.90
9730;DHT22;4904;49.152;11.004;2024-01-30T03:31:09;2.20;99.90
9730;DHT22;4904;49.152;11.004;2024-01-30T03:33:36;2.30;99.90
9730;DHT22;4904;49.152;11.004;2024-01-30T03:36:05;2.40;99.90
9730;DHT22;4904;49.152;11.004;2024-01-30T03:38:32;2.40;99.90
9730;DHT22;4904;49.152;11.004;2024-01-30T03:40:59;2.40;99.90
9730;DHT22;4904;49.152;11.004;2024-01-30T03:43:26;2.40;99.90
9730;DHT22;4904;49.152;11.004;2024-01-30T03:45:53;2.40;99.90
9730;DHT22;4904;49.152;11.004;2024-01-30T03:48:21;2.40;99.90
9730;DHT22;4904;49.152;11.004;2024-01-30T03:50:48;2.40;99.90
9730;DHT22;4904;49.152;11.004;2024-01-30T03:53:15;2.60;99.90
9730;DHT22;4904;49.152;11.004;2024-01-30T03:55:42;2.40;99.90
9730;DHT22;4904;49.152;11.004;2024-01-30T03:58:09;2.40;99.90
9730;DHT22;4904;49.152;11.004;2024-01-30T04:00:36;2.50;99.90
9730;DHT22;4904;49.152;11.004;2024-01-30T04:03:03;2.50;99.90
9730;DHT22;4904;49.152;11.004;2024-01-30T04:05:31;2.50;99.90
9730;DHT22;4904;49.152;11.004;2024-01-30T04:07:59;2.50;99.90
9730;DHT22;4904;49.152;11.004;2024-01-30T04:10:26;2.50;99.90
9730;DHT22;4904;49.152;11.004;2024-01-30T04:12:53;2.60;99.90
9730;DHT22;4904;49.152;11.004;2024-01-30T04:15:20;2.60;99.90
9730;DHT22;4904;49.152;11.004;2024-01-30T04:17:47;2.60;99.90
9730;DHT22;4904;49.152;11.004;2024-01-30T04:20:14;2.70;99.90
9730;DHT22;4904;49.152;11.004;2024-01-30T04:22:44;2.70;99.90
9730;DHT22;4904;49.152;11.004;2024-01-30T04:25:11;2.70;99.90
9730;DHT22;4904;49.152;11.004;2024-01-30T04:27:38;2.70;99.90
9730;DHT22;4904;49.152;11.004;2024-01-30T04:30:06;2.70;99.90
9730;DHT22;4904;49.152;11.004;2024-01-30T04:32:33;2.70;99.90
9730;DHT22;4904;49.152;11.004;2024-01-30T04:35:00;2.70;99.90
9730;DHT22;4904;49.152;11.004;2024-01-30T04:37:26;2.70;99.90
9730;DHT22;4904;49.152;11.004;2024-01-30T04:39:54;2.70;99.90
9730;DHT22;4904;49.152;11.004;2024-01-30T04:42:21;2.70;99.90
9730;DHT22;4904;49.152;11.004;2024-01-30T04:44:48;2.70;99.90
9730;DHT22;4904;49.152;11.004;2024-01-30T04:47:15;2.70;99.90
9730;DHT22;4904;49.152;11.004;2024-01-30T04:49:42;2.60;99.90
9730;DHT22;4904;49.152;11.004;2024-01-30T04:52:10;2.60;99.90
9730;DHT22;4904;49.152;11.004;2024-01-30T04:54:36;2.60;99.90
9730;DHT22;4904;49.152;11.004;2024-01-30T04:57:05;2.60;99.90
9730;DHT22;4904;49.152;11.004;2024-01-30T04:59:35;2.60;99.90
9730;DHT22;4904;49.152;11.004;2024-01-30T05:02:02;2.70;99.90
9730;DHT22;4904;49.152;11.004;2024-01-30T05:04:29;2.70;99.90
9730;DHT22;4904;49.152;11.004;2024-01-30T05:06:56;2.70;99.90
9730;DHT22;4904;49.152;11.004;2024-01-30T05:09:22;2.70;99.90
9730;DHT22;4904;49.152;11.004;2024-01-30T05:11:49;2.70;99.90
9730;DHT22;4904;49.152;11.004;2024-01-30T05:14:18;2.70;99.90
9730;DHT22;4904;49.152;11.004;2024-01-30T05:16:45;2.70;99.90
9730;DHT22;4904;49.152;11.004;2024-01-30T05:19:13;2.70;99.90
9730;DHT22;4904;49.152;11.004;2024-01-30T05:21:40;2.70;99.90
9730;DHT22;4904;49.152;11.004;2024-01-30T05:24:07;2.60;99.90
9730;DHT22;4904;49.152;11.004;2024-01-30T05:26:35;2.70;99.90
9730;DHT22;4904;49.152;11.004;2024-01-30T05:29:02;2.70;99.90
9730;DHT22;4904;49.152;11.004;2024-01-30T05:31:30;2.70;99.90
9730;DHT22;4904;49.152;11.004;2024-01-30T05:33:57;2.60;99.90
9730;DHT22;4904;49.152;11.004;2024-01-30T05:36:24;2.70;99.90
9730;DHT22;4904;49.152;11.004;2024-01-30T05:38:51;2.60;99.90
9730;DHT22;4904;49.152;11.004;2024-01-30T05:41:18;2.50;99.90
9730;DHT22;4904;49.152;11.004;2024-01-30T05:43:45;2.50;99.90
9730;DHT22;4904;49.152;11.004;2024-01-30T05:46:12;2.40;99.90
9730;DHT22;4904;49.152;11.004;2024-01-30T05:48:40;2.50;99.90
9730;DHT22;4904;49.152;11.004;2024-01-30T05:51:07;2.50;99.90
9730;DHT22;4904;49.152;11.004;2024-01-30T05:53:34;2.40;99.90
9730;DHT22;4904;49.152;11.004;2024-01-30T05:56:02;2.50;99.90
9730;DHT22;4904;49.152;11.004;2024-01-30T05:58:29;2.40;99.90
9730;DHT22;4904;49.152;11.004;2024-01-30T06:00:56;2.30;99.90
9730;DHT22;4904;49.152;11.004;2024-01-30T06:03:24;2.30;99.90
9730;DHT22;4904;49.152;11.004;2024-01-30T06:05:52;2.30;99.90
9730;DHT22;4904;49.152;11.004;2024-01-30T06:08:19;2.30;99.90
9730;DHT22;4904;49.152;11.004;2024-01-30T06:10:46;2.30;99.90
9730;DHT22;4904;49.152;11.004;2024-01-30T06:13:13;2.30;99.90
9730;DHT22;4904;49.152;11.004;2024-01-30T06:15:40;2.30;99.90
9730;DHT22;4904;49.152;11.004;2024-01-30T06:18:07;2.20;99.90
9730;DHT22;4904;49.152;11.004;2024-01-30T06:20:34;2.20;99.90
9730;DHT22;4904;49.152;11.004;2024-01-30T06:23:02;2.20;99.90
9730;DHT22;4904;49.152;11.004;2024-01-30T06:25:29;2.30;99.90
9730;DHT22;4904;49.152;11.004;2024-01-30T06:27:56;2.10;99.90
9730;DHT22;4904;49.152;11.004;2024-01-30T06:30:23;2.10;99.90
9730;DHT22;4904;49.152;11.004;2024-01-30T06:32:50;2.10;99.90
9730;DHT22;4904;49.152;11.004;2024-01-30T06:35:16;2.20;99.90
9730;DHT22;4904;49.152;11.004;2024-01-30T06:37:43;2.10;99.90
9730;DHT22;4904;49.152;11.004;2024-01-30T06:40:12;2.20;99.90
9730;DHT22;4904;49.152;11.004;2024-01-30T06:42:39;2.20;99.90
9730;DHT22;4904;49.152;11.004;2024-01-30T06:45:07;2.20;99.90
9730;DHT22;4904;49.152;11.004;2024-01-30T06:47:34;2.10;99.90
9730;DHT22;4904;49.152;11.004;2024-01-30T06:50:01;2.20;99.90
9730;DHT22;4904;49.152;11.004;2024-01-30T06:52:29;2.20;99.90
9730;DHT22;4904;49.152;11.004;2024-01-30T06:54:55;2.10;99.90
9730;DHT22;4904;49.152;11.004;2024-01-30T06:57:24;2.10;99.90
9730;DHT22;4904;49.152;11.004;2024-01-30T06:59:55;2.00;99.90
9730;DHT22;4904;49.152;11.004;2024-01-30T07:02:21;2.00;99.90
9730;DHT22;4904;49.152;11.004;2024-01-30T07:04:48;1.90;99.90
9730;DHT22;4904;49.152;11.004;2024-01-30T07:07:16;2.00;99.90
9730;DHT22;4904;49.152;11.004;2024-01-30T07:09:42;2.00;99.90
9730;DHT22;4904;49.152;11.004;2024-01-30T07:12:10;2.00;99.90
9730;DHT22;4904;49.152;11.004;2024-01-30T07:14:38;2.00;99.90
9730;DHT22;4904;49.152;11.004;2024-01-30T07:17:05;2.00;99.90
9730;DHT22;4904;49.152;11.004;2024-01-30T07:19:33;2.00;99.90
9730;DHT22;4904;49.152;11.004;2024-01-30T07:22:00;2.20;99.90
9730;DHT22;4904;49.152;11.004;2024-01-30T07:24:27;2.10;99.90
9730;DHT22;4904;49.152;11.004;2024-01-30T07:26:54;2.10;99.90
9730;DHT22;4904;49.152;11.004;2024-01-30T07:29:21;2.00;99.90
9730;DHT22;4904;49.152;11.004;2024-01-30T07:31:49;2.10;99.90
9730;DHT22;4904;49.152;11.004;2024-01-30T07:34:16;2.10;99.90
9730;DHT22;4904;49.152;11.004;2024-01-30T07:36:43;2.20;99.90
9730;DHT22;4904;49.152;11.004;2024-01-30T07:39:10;2.20;99.90
9730;DHT22;4904;49.152;11.004;2024-01-30T07:41:37;2.20;99.90
9730;DHT22;4904;49.152;11.004;2024-01-30T07:44:04;2.30;99.90
9730;DHT22;4904;49.152;11.004;2024-01-30T07:46:30;2.40;99.90
9730;DHT22;4904;49.152;11.004;2024-01-30T07:48:59;2.50;99.90
9730;DHT22;4904;49.152;11.004;2024-01-30T07:51:26;2.50;99.90
9730;DHT22;4904;49.152;11.004;2024-01-30T07:53:54;2.50;99.90
9730;DHT22;4904;49.152;11.004;2024-01-30T07:56:20;2.60;99.90
9730;DHT22;4904;49.152;11.004;2024-01-30T07:58:48;2.60;99.90
9730;DHT22;4904;49.152;11.004;2024-01-30T08:01:15;2.70;99.90
9730;DHT22;4904;49.152;11.004;2024-01-30T08:03:42;2.80;99.90
9730;DHT22;4904;49.152;11.004;2024-01-30T08:06:11;2.80;99.90
9730;DHT22;4904;49.152;11.004;2024-01-30T08:08:37;2.80;99.90
9730;DHT22;4904;49.152;11.004;2024-01-30T08:11:04;3.00;99.90
9730;DHT22;4904;49.152;11.004;2024-01-30T08:13:31;3.10;99.90
9730;DHT22;4904;49.152;11.004;2024-01-30T08:15:58;3.20;99.90
9730;DHT22;4904;49.152;11.004;2024-01-30T08:18:25;3.20;99.90
9730;DHT22;4904;49.152;11.004;2024-01-30T08:20:52;3.30;99.90
9730;DHT22;4904;49.152;11.004;2024-01-30T08:23:20;3.50;99.90
9730;DHT22;4904;49.152;11.004;2024-01-30T08:25:47;3.50;99.90
9730;DHT22;4904;49.152;11.004;2024-01-30T08:28:14;3.60;99.90
9730;DHT22;4904;49.152;11.004;2024-01-30T08:30:41;3.70;99.90
9730;DHT22;4904;49.152;11.004;2024-01-30T08:33:08;3.80;99.90
9730;DHT22;4904;49.152;11.004;2024-01-30T08:35:35;3.90;99.90
9730;DHT22;4904;49.152;11.004;2024-01-30T08:38:01;3.90;99.90
9730;DHT22;4904;49.152;11.004;2024-01-30T08:40:30;4.00;99.90
9730;DHT22;4904;49.152;11.004;2024-01-30T08:42:57;4.10;99.90
9730;DHT22;4904;49.152;11.004;2024-01-30T08:45:24;4.10;99.90
9730;DHT22;4904;49.152;11.004;2024-01-30T08:47:51;4.20;99.90
9730;DHT22;4904;49.152;11.004;2024-01-30T08:50:17;4.30;99.90
9730;DHT22;4904;49.152;11.004;2024-01-30T08:52:44;4.40;99.90
9730;DHT22;4904;49.152;11.004;2024-01-30T08:55:11;4.50;99.90
9730;DHT22;4904;49.152;11.004;2024-01-30T08:57:39;4.60;99.90
9730;DHT22;4904;49.152;11.004;2024-01-30T09:00:07;4.60;99.90
9730;DHT22;4904;49.152;11.004;2024-01-30T09:02:35;4.70;99.90
9730;DHT22;4904;49.152;11.004;2024-01-30T09:05:02;4.60;99.90
9730;DHT22;4904;49.152;11.004;2024-01-30T09:07:29;4.70;99.90
9730;DHT22;4904;49.152;11.004;2024-01-30T09:09:56;4.70;99.90
9730;DHT22;4904;49.152;11.004;2024-01-30T09:12:23;4.80;99.90
9730;DHT22;4904;49.152;11.004;2024-01-30T09:14:52;4.90;99.90
9730;DHT22;4904;49.152;11.004;2024-01-30T09:17:19;5.00;99.90
9730;DHT22;4904;49.152;11.004;2024-01-30T09:19:46;5.10;99.90
9730;DHT22;4904;49.152;11.004;2024-01-30T09:22:13;5.20;99.90
9730;DHT22;4904;49.152;11.004;2024-01-30T09:24:40;5.30;99.90
9730;DHT22;4904;49.152;11.004;2024-01-30T09:27:07;5.30;99.90
9730;DHT22;4904;49.152;11.004;2024-01-30T09:29:34;5.40;99.90
9730;DHT22;4904;49.152;11.004;2024-01-30T09:32:04;5.50;99.90
9730;DHT22;4904;49.152;11.004;2024-01-30T09:34:32;5.50;99.90
9730;DHT22;4904;49.152;11.004;2024-01-30T09:36:59;5.50;99.90
9730;DHT22;4904;49.152;11.004;2024-01-30T09:39:25;5.60;99.90
9730;DHT22;4904;49.152;11.004;2024-01-30T09:41:55;5.70;99.90
9730;DHT22;4904;49.152;11.004;2024-01-30T09:44:26;5.90;99.90
9730;DHT22;4904;49.152;11.004;2024-01-30T09:46:55;6.00;99.90
9730;DHT22;4904;49.152;11.004;2024-01-30T09:49:26;6.20;99.90
9730;DHT22;4904;49.152;11.004;2024-01-30T09:51:53;6.30;99.90
9730;DHT22;4904;49.152;11.004;2024-01-30T09:54:21;6.40;99.90
9730;DHT22;4904;49.152;11.004;2024-01-30T09:56:48;6.60;99.90
9730;DHT22;4904;49.152;11.004;2024-01-30T09:59:15;6.60;99.90
9730;DHT22;4904;49.152;11.004;2024-01-30T10:01:42;6.70;99.90
9730;DHT22;4904;49.152;11.004;2024-01-30T10:04:10;6.70;99.90
9730;DHT22;4904;49.152;11.004;2024-01-30T10:06:39;6.70;99.90
9730;DHT22;4904;49.152;11.004;2024-01-30T10:09:07;6.90;99.90
9730;DHT22;4904;49.152;11.004;2024-01-30T10:11:35;7.00;99.90
9730;DHT22;4904;49.152;11.004;2024-01-30T10:14:02;7.10;99.90
9730;DHT22;4904;49.152;11.004;2024-01-30T10:16:29;7.20;99.90
9730;DHT22;4904;49.152;11.004;2024-01-30T10:18:56;7.30;99.90
9730;DHT22;4904;49.152;11.004;2024-01-30T10:21:23;7.30;99.90
9730;DHT22;4904;49.152;11.004;2024-01-30T10:23:51;7.40;99.90
9730;DHT22;4904;49.152;11.004;2024-01-30T10:26:19;7.50;99.90
9730;DHT22;4904;49.152;11.004;2024-01-30T10:28:46;7.50;99.90
9730;DHT22;4904;49.152;11.004;2024-01-30T10:31:16;7.60;99.90
9730;DHT22;4904;49.152;11.004;2024-01-30T10:33:44;7.70;99.90
9730;DHT22;4904;49.152;11.004;2024-01-30T10:36:13;7.80;99.90
9730;DHT22;4904;49.152;11.004;2024-01-30T10:38:42;7.90;99.90
9730;DHT22;4904;49.152;11.004;2024-01-30T10:41:11;7.90;99.90
9730;DHT22;4904;49.152;11.004;2024-01-30T10:43:47;7.90;99.90
9730;DHT22;4904;49.152;11.004;2024-01-30T10:46:18;7.90;99.90
9730;DHT22;4904;49.152;11.004;2024-01-30T10:48:51;7.90;99.90
9730;DHT22;4904;49.152;11.004;2024-01-30T10:51:22;7.90;99.90
9730;DHT22;4904;49.152;11.004;2024-01-30T10:53:50;7.90;99.90
9730;DHT22;4904;49.152;11.004;2024-01-30T10:56:22;7.90;99.90
9730;DHT22;4904;49.152;11.004;2024-01-30T10:58:50;8.00;99.90
9730;DHT22;4904;49.152;11.004;2024-01-30T11:01:18;8.00;99.90
9730;DHT22;4904;49.152;11.004;2024-01-30T11:03:46;8.00;99.90
9730;DHT22;4904;49.152;11.004;2024-01-30T11:06:14;8.10;99.90
9730;DHT22;4904;49.152;11.004;2024-01-30T11:08:43;8.10;99.90
9730;DHT22;4904;49.152;11.004;2024-01-30T11:11:11;8.20;99.90
9730;DHT22;4904;49.152;11.004;2024-01-30T11:13:40;8.20;99.90
9730;DHT22;4904;49.152;11.004;2024-01-30T11:16:11;8.20;99.90
9730;DHT22;4904;49.152;11.004;2024-01-30T11:18:38;8.20;99.90
9730;DHT22;4904;49.152;11.004;2024-01-30T11:21:05;8.30;99.90
9730;DHT22;4904;49.152;11.004;2024-01-30T11:23:34;8.30;99.90
9730;DHT22;4904;49.152;11.004;2024-01-30T11:26:01;8.40;99.90
9730;DHT22;4904;49.152;11.004;2024-01-30T11:28:32;8.50;99.90
9730;DHT22;4904;49.152;11.004;2024-01-30T11:31:05;8.60;99.90
9730;DHT22;4904;49.152;11.004;2024-01-30T11:33:32;8.70;99.90
9730;DHT22;4904;49.152;11.004;2024-01-30T11:36:00;8.80;99.90
9730;DHT22;4904;49.152;11.004;2024-01-30T11:38:28;8.80;99.90
9730;DHT22;4904;49.152;11.004;2024-01-30T11:40:55;8.80;99.90
9730;DHT22;4904;49.152;11.004;2024-01-30T11:43:23;8.90;99.90
9730;DHT22;4904;49.152;11.004;2024-01-30T11:45:50;9.00;99.90
9730;DHT22;4904;49.152;11.004;2024-01-30T11:48:19;9.00;99.90
9730;DHT22;4904;49.152;11.004;2024-01-30T11:50:46;9.10;99.90
9730;DHT22;4904;49.152;11.004;2024-01-30T11:53:13;9.20;99.90
9730;DHT22;4904;49.152;11.004;2024-01-30T11:55:43;9.20;99.90
9730;DHT22;4904;49.152;11.004;2024-01-30T11:58:15;9.30;99.90
9730;DHT22;4904;49.152;11.004;2024-01-30T12:00:42;9.40;99.90
9730;DHT22;4904;49.152;11.004;2024-01-30T12:03:11;9.50;99.90
9730;DHT22;4904;49.152;11.004;2024-01-30T12:05:39;9.50;99.90
9730;DHT22;4904;49.152;11.004;2024-01-30T12:08:14;9.50;99.90
9730;DHT22;4904;49.152;11.004;2024-01-30T12:10:41;9.60;99.90
9730;DHT22;4904;49.152;11.004;2024-01-30T12:13:08;9.70;99.90
9730;DHT22;4904;49.152;11.004;2024-01-30T12:15:35;9.70;99.90
9730;DHT22;4904;49.152;11.004;2024-01-30T12:18:05;9.80;99.90
9730;DHT22;4904;49.152;11.004;2024-01-30T12:20:33;9.80;99.90
9730;DHT22;4904;49.152;11.004;2024-01-30T12:23:02;9.80;99.90
9730;DHT22;4904;49.152;11.004;2024-01-30T12:25:29;9.80;99.90
9730;DHT22;4904;49.152;11.004;2024-01-30T12:27:56;9.90;99.90
9730;DHT22;4904;49.152;11.004;2024-01-30T12:30:23;9.90;99.90
9730;DHT22;4904;49.152;11.004;2024-01-30T12:32:50;9.90;99.90
9730;DHT22;4904;49.152;11.004;2024-01-30T12:35:18;10.00;99.90
9730;DHT22;4904;49.152;11.004;2024-01-30T12:37:46;10.00;99.90
9730;DHT22;4904;49.152;11.004;2024-01-30T12:40:15;10.10;99.90
9730;DHT22;4904;49.152;11.004;2024-01-30T12:42:43;10.20;99.90
9730;DHT22;4904;49.152;11.004;2024-01-30T12:45:14;10.20;99.90
9730;DHT22;4904;49.152;11.004;2024-01-30T12:47:41;10.20;99.90
9730;DHT22;4904;49.152;11.004;2024-01-30T12:50:08;10.30;99.90
9730;DHT22;4904;49.152;11.004;2024-01-30T12:52:36;10.30;99.90
9730;DHT22;4904;49.152;11.004;2024-01-30T12:55:03;10.40;99.90
9730;DHT22;4904;49.152;11.004;2024-01-30T12:57:32;10.40;99.90
9730;DHT22;4904;49.152;11.004;2024-01-30T12:59:59;10.50;99.90
9730;DHT22;4904;49.152;11.004;2024-01-30T13:02:26;10.60;99.90
9730;DHT22;4904;49.152;11.004;2024-01-30T13:05:00;10.60;99.90
9730;DHT22;4904;49.152;11.004;2024-01-30T13:07:27;10.70;99.90
9730;DHT22;4904;49.152;11.004;2024-01-30T13:09:54;10.80;99.90
9730;DHT22;4904;49.152;11.004;2024-01-30T13:12:21;10.80;99.90
9730;DHT22;4904;49.152;11.004;2024-01-30T13:14:49;10.90;99.90
9730;DHT22;4904;49.152;11.004;2024-01-30T13:17:16;10.90;99.90
9730;DHT22;4904;49.152;11.004;2024-01-30T13:19:43;10.80;99.90
9730;DHT22;4904;49.152;11.004;2024-01-30T13:22:10;10.90;99.90
9730;DHT22;4904;49.152;11.004;2024-01-30T13:24:37;11.00;99.90
9730;DHT22;4904;49.152;11.004;2024-01-30T13:27:04;10.90;99.90
9730;DHT22;4904;49.152;11.004;2024-01-30T13:29:32;10.90;99.90
9730;DHT22;4904;49.152;11.004;2024-01-30T13:32:00;10.80;99.90
9730;DHT22;4904;49.152;11.004;2024-01-30T13:34:27;10.70;99.90
9730;DHT22;4904;49.152;11.004;2024-01-30T13:36:54;10.80;99.90
9730;DHT22;4904;49.152;11.004;2024-01-30T13:39:22;10.80;99.90
9730;DHT22;4904;49.152;11.004;2024-01-30T13:41:49;10.80;99.90
9730;DHT22;4904;49.152;11.004;2024-01-30T13:44:16;10.80;99.90
9730;DHT22;4904;49.152;11.004;2024-01-30T13:46:44;10.90;99.90
9730;DHT22;4904;49.152;11.004;2024-01-30T13:49:13;11.00;99.90
9730;DHT22;4904;49.152;11.004;2024-01-30T13:51:40;11.10;99.90
9730;DHT22;4904;49.152;11.004;2024-01-30T13:54:07;11.10;99.90
9730;DHT22;4904;49.152;11.004;2024-01-30T13:56:34;11.20;99.90
9730;DHT22;4904;49.152;11.004;2024-01-30T13:59:01;11.30;99.90
9730;DHT22;4904;49.152;11.004;2024-01-30T14:01:31;11.20;99.90
9730;DHT22;4904;49.152;11.004;2024-01-30T14:03:58;11.30;99.90
9730;DHT22;4904;49.152;11.004;2024-01-30T14:06:26;11.20;99.90
9730;DHT22;4904;49.152;11.004;2024-01-30T14:08:53;11.30;99.90
9730;DHT22;4904;49.152;11.004;2024-01-30T14:11:20;11.40;99.90
9730;DHT22;4904;49.152;11.004;2024-01-30T14:13:47;11.40;99.90
9730;DHT22;4904;49.152;11.004;2024-01-30T14:16:14;11.30;99.90
9730;DHT22;4904;49.152;11.004;2024-01-30T14:18:41;11.30;99.90
9730;DHT22;4904;49.152;11.004;2024-01-30T14:21:08;11.20;99.90
9730;DHT22;4904;49.152;11.004;2024-01-30T14:23:36;11.30;99.90
9730;DHT22;4904;49.152;11.004;2024-01-30T14:26:03;11.30;99.90
9730;DHT22;4904;49.152;11.004;2024-01-30T14:28:30;11.30;99.90
9730;DHT22;4904;49.152;11.004;2024-01-30T14:30:57;11.40;99.90
9730;DHT22;4904;49.152;11.004;2024-01-30T14:33:24;11.40;99.90
9730;DHT22;4904;49.152;11.004;2024-01-30T14:35:51;11.40;99.90
9730;DHT22;4904;49.152;11.004;2024-01-30T14:38:18;11.50;99.90
9730;DHT22;4904;49.152;11.004;2024-01-30T14:40:46;11.50;99.90
9730;DHT22;4904;49.152;11.004;2024-01-30T14:43:13;11.50;99.90
9730;DHT22;4904;49.152;11.004;2024-01-30T14:45:40;11.50;99.90
9730;DHT22;4904;49.152;11.004;2024-01-30T14:48:08;11.40;99.90
9730;DHT22;4904;49.152;11.004;2024-01-30T14:50:35;11.50;99.90
9730;DHT22;4904;49.152;11.004;2024-01-30T14:53:02;11.60;99.90
9730;DHT22;4904;49.152;11.004;2024-01-30T14:55:29;11.60;99.90
9730;DHT22;4904;49.152;11.004;2024-01-30T14:57:57;11.60;99.90
9730;DHT22;4904;49.152;11.004;2024-01-30T15:00:25;11.50;99.90
9730;DHT22;4904;49.152;11.004;2024-01-30T15:02:52;11.40;99.90
9730;DHT22;4904;49.152;11.004;2024-01-30T15:05:18;11.50;99.90
9730;DHT22;4904;49.152;11.004;2024-01-30T15:07:45;11.50;99.90
9730;DHT22;4904;49.152;11.004;2024-01-30T15:10:12;11.50;99.90
9730;DHT22;4904;49.152;11.004;2024-01-30T15:12:39;11.50;99.90
9730;DHT22;4904;49.152;11.004;2024-01-30T15:15:08;11.30;99.90
9730;DHT22;4904;49.152;11.004;2024-01-30T15:17:35;11.30;99.90
9730;DHT22;4904;49.152;11.004;2024-01-30T15:20:03;11.30;99.90
9730;DHT22;4904;49.152;11.004;2024-01-30T15:22:30;11.20;99.90
9730;DHT22;4904;49.152;11.004;2024-01-30T15:24:57;11.20;99.90
9730;DHT22;4904;49.152;11.004;2024-01-30T15:27:23;11.10;99.90
9730;DHT22;4904;49.152;11.004;2024-01-30T15:29:50;10.90;99.90
9730;DHT22;4904;49.152;11.004;2024-01-30T15:32:19;10.80;99.90
9730;DHT22;4904;49.152;11.004;2024-01-30T15:34:46;10.80;99.90
9730;DHT22;4904;49.152;11.004;2024-01-30T15:37:12;10.80;99.90
9730;DHT22;4904;49.152;11.004;2024-01-30T15:39:39;10.70;99.90
9730;DHT22;4904;49.152;11.004;2024-01-30T15:42:07;10.60;99.90
9730;DHT22;4904;49.152;11.004;2024-01-30T15:44:34;10.60;99.90
9730;DHT22;4904;49.152;11.004;2024-01-30T15:47:01;10.60;99.90
9730;DHT22;4904;49.152;11.004;2024-01-30T15:49:29;10.50;99.90
9730;DHT22;4904;49.152;11.004;2024-01-30T15:51:56;10.50;99.90
9730;DHT22;4904;49.152;11.004;2024-01-30T15:54:23;10.40;99.90
9730;DHT22;4904;49.152;11.004;2024-01-30T15:56:50;10.40;99.90
9730;DHT22;4904;49.152;11.004;2024-01-30T15:59:16;10.30;99.90